sensor_id;sensor_type;location;lat;lon;timestamp;P1;durP1;ratioP1;P2;durP2;ratioP2
71790;SDS011;59638;52.126;5.434;2023-07-13T00:01:48;7.28;;;0.20;;
71790;SDS011;59638;52.126;5.434;2023-07-13T00:04:19;6.77;;;0.70;;
71790;SDS011;59638;52.126;5.434;2023-07-13T00:06:49;4.95;;;0.50;;
71790;SDS011;59638;52.126;5.434;2023-07-13T00:09:16;8.23;;;0.85;;
71790;SDS011;59638;52.126;5.434;2023-07-13T00:11:44;4.93;;;0.30;;
71790;SDS011;59638;52.126;5.434;2023-07-13T00:14:14;5.18;;;0.60;;
71790;SDS011;59638;52.126;5.434;2023-07-13T00:16:42;3.97;;;0.40;;
71790;SDS011;59638;52.126;5.434;2023-07-13T00:19:10;3.42;;;0.30;;
71790;SDS011;59638;52.126;5.434;2023-07-13T00:21:38;6.65;;;1.33;;
71790;SDS011;59638;52.126;5.434;2023-07-13T00:24:07;7.28;;;0.40;;
71790;SDS011;59638;52.126;5.434;2023-07-13T00:26:41;3.40;;;0.55;;
71790;SDS011;59638;52.126;5.434;2023-07-13T00:29:12;7.17;;;0.53;;
71790;SDS011;59638;52.126;5.434;2023-07-13T00:31:39;2.72;;;0.30;;
71790;SDS011;59638;52.126;5.434;2023-07-13T00:34:05;4.63;;;0.63;;
71790;SDS011;59638;52.126;5.434;2023-07-13T00:36:32;2.67;;;0.40;;
71790;SDS011;59638;52.126;5.434;2023-07-13T00:38:58;4.63;;;0.30;;
71790;SDS011;59638;52.126;5.434;2023-07-13T00:41:25;2.97;;;0.30;;
71790;SDS011;59638;52.126;5.434;2023-07-13T00:43:52;3.65;;;0.30;;
71790;SDS011;59638;52.126;5.434;2023-07-13T00:46:29;4.82;;;0.30;;
71790;SDS011;59638;52.126;5.434;2023-07-13T00:48:59;4.00;;;0.40;;
71790;SDS011;59638;52.126;5.434;2023-07-13T00:51:30;4.05;;;0.30;;
71790;SDS011;59638;52.126;5.434;2023-07-13T00:54:03;3.87;;;0.30;;
71790;SDS011;59638;52.126;5.434;2023-07-13T00:56:31;6.95;;;0.30;;
71790;SDS011;59638;52.126;5.434;2023-07-13T00:59:00;8.63;;;0.30;;
71790;SDS011;59638;52.126;5.434;2023-07-13T01:03:59;4.65;;;0.75;;
71790;SDS011;59638;52.126;5.434;2023-07-13T01:06:25;5.00;;;0.57;;
71790;SDS011;59638;52.126;5.434;2023-07-13T01:08:52;4.60;;;0.40;;
71790;SDS011;59638;52.126;5.434;2023-07-13T01:11:20;8.23;;;0.50;;
71790;SDS011;59638;52.126;5.434;2023-07-13T01:13:50;4.90;;;0.40;;
71790;SDS011;59638;52.126;5.434;2023-07-13T01:16:27;1.88;;;0.30;;
71790;SDS011;59638;52.126;5.434;2023-07-13T01:18:56;9.43;;;0.60;;
71790;SDS011;59638;52.126;5.434;2023-07-13T01:21:28;3.78;;;0.68;;
71790;SDS011;59638;52.126;5.434;2023-07-13T01:23:56;3.85;;;0.50;;
71790;SDS011;59638;52.126;5.434;2023-07-13T01:26:23;3.20;;;0.30;;
71790;SDS011;59638;52.126;5.434;2023-07-13T01:28:50;3.47;;;0.40;;
71790;SDS011;59638;52.126;5.434;2023-07-13T01:31:17;3.53;;;0.60;;
71790;SDS011;59638;52.126;5.434;2023-07-13T01:33:43;4.80;;;0.45;;
71790;SDS011;59638;52.126;5.434;2023-07-13T01:36:10;1.77;;;0.28;;
71790;SDS011;59638;52.126;5.434;2023-07-13T01:38:38;2.25;;;0.40;;
71790;SDS011;59638;52.126;5.434;2023-07-13T01:41:04;4.95;;;0.60;;
71790;SDS011;59638;52.126;5.434;2023-07-13T01:43:31;3.40;;;0.40;;
71790;SDS011;59638;52.126;5.434;2023-07-13T01:45:58;5.10;;;0.43;;
71790;SDS011;59638;52.126;5.434;2023-07-13T01:48:45;2.67;;;0.40;;
71790;SDS011;59638;52.126;5.434;2023-07-13T01:51:11;3.97;;;0.45;;
71790;SDS011;59638;52.126;5.434;2023-07-13T01:53:39;3.60;;;0.40;;
71790;SDS011;59638;52.126;5.434;2023-07-13T01:56:06;12.80;;;0.87;;
71790;SDS011;59638;52.126;5.434;2023-07-13T01:58:32;6.07;;;0.60;;
71790;SDS011;59638;52.126;5.434;2023-07-13T02:00:59;8.02;;;0.50;;
71790;SDS011;59638;52.126;5.434;2023-07-13T02:03:26;5.15;;;0.93;;
71790;SDS011;59638;52.126;5.434;2023-07-13T02:05:52;4.25;;;0.45;;
71790;SDS011;59638;52.126;5.434;2023-07-13T02:08:19;4.60;;;0.50;;
71790;SDS011;59638;52.126;5.434;2023-07-13T02:10:45;4.45;;;0.30;;
71790;SDS011;59638;52.126;5.434;2023-07-13T02:13:12;8.50;;;1.05;;
71790;SDS011;59638;52.126;5.434;2023-07-13T02:15:39;4.22;;;0.43;;
71790;SDS011;59638;52.126;5.434;2023-07-13T02:18:07;2.80;;;0.35;;
71790;SDS011;59638;52.126;5.434;2023-07-13T02:20:33;3.73;;;0.60;;
71790;SDS011;59638;52.126;5.434;2023-07-13T02:23:00;5.53;;;0.52;;
71790;SDS011;59638;52.126;5.434;2023-07-13T02:25:27;4.90;;;0.52;;
71790;SDS011;59638;52.126;5.434;2023-07-13T02:27:53;5.35;;;0.88;;
71790;SDS011;59638;52.126;5.434;2023-07-13T02:30:20;5.13;;;0.38;;
71790;SDS011;59638;52.126;5.434;2023-07-13T02:32:48;2.80;;;0.47;;
71790;SDS011;59638;52.126;5.434;2023-07-13T02:35:17;6.05;;;0.93;;
71790;SDS011;59638;52.126;5.434;2023-07-13T02:37:44;2.17;;;0.40;;
71790;SDS011;59638;52.126;5.434;2023-07-13T02:40:11;4.40;;;0.60;;
71790;SDS011;59638;52.126;5.434;2023-07-13T02:42:37;4.57;;;0.40;;
71790;SDS011;59638;52.126;5.434;2023-07-13T02:45:05;3.30;;;0.63;;
71790;SDS011;59638;52.126;5.434;2023-07-13T02:47:33;3.35;;;0.43;;
71790;SDS011;59638;52.126;5.434;2023-07-13T02:49:59;3.72;;;0.50;;
71790;SDS011;59638;52.126;5.434;2023-07-13T02:52:26;10.88;;;0.93;;
71790;SDS011;59638;52.126;5.434;2023-07-13T02:54:53;5.30;;;0.45;;
71790;SDS011;59638;52.126;5.434;2023-07-13T02:57:19;5.73;;;0.60;;
71790;SDS011;59638;52.126;5.434;2023-07-13T02:59:49;3.50;;;0.40;;
71790;SDS011;59638;52.126;5.434;2023-07-13T03:02:16;7.72;;;0.40;;
71790;SDS011;59638;52.126;5.434;2023-07-13T03:04:42;3.70;;;0.50;;
71790;SDS011;59638;52.126;5.434;2023-07-13T03:07:09;5.28;;;0.90;;
71790;SDS011;59638;52.126;5.434;2023-07-13T03:09:35;4.20;;;0.30;;
71790;SDS011;59638;52.126;5.434;2023-07-13T03:12:02;4.55;;;0.55;;
71790;SDS011;59638;52.126;5.434;2023-07-13T03:14:29;4.10;;;0.95;;
71790;SDS011;59638;52.126;5.434;2023-07-13T03:16:56;4.60;;;1.10;;
71790;SDS011;59638;52.126;5.434;2023-07-13T03:19:23;5.38;;;0.93;;
71790;SDS011;59638;52.126;5.434;2023-07-13T03:21:49;3.73;;;0.70;;
71790;SDS011;59638;52.126;5.434;2023-07-13T03:24:16;7.47;;;0.50;;
71790;SDS011;59638;52.126;5.434;2023-07-13T03:26:43;4.57;;;0.47;;
71790;SDS011;59638;52.126;5.434;2023-07-13T03:29:09;4.88;;;0.80;;
71790;SDS011;59638;52.126;5.434;2023-07-13T03:31:36;3.15;;;0.60;;
71790;SDS011;59638;52.126;5.434;2023-07-13T03:34:03;2.73;;;0.50;;
71790;SDS011;59638;52.126;5.434;2023-07-13T03:36:30;4.88;;;1.10;;
71790;SDS011;59638;52.126;5.434;2023-07-13T03:38:59;4.78;;;0.80;;
71790;SDS011;59638;52.126;5.434;2023-07-13T03:41:27;7.25;;;0.93;;
71790;SDS011;59638;52.126;5.434;2023-07-13T03:43:53;5.15;;;0.65;;
71790;SDS011;59638;52.126;5.434;2023-07-13T03:46:20;5.80;;;0.60;;
71790;SDS011;59638;52.126;5.434;2023-07-13T03:48:47;10.82;;;0.70;;
71790;SDS011;59638;52.126;5.434;2023-07-13T03:51:14;8.40;;;0.60;;
71790;SDS011;59638;52.126;5.434;2023-07-13T03:53:42;11.25;;;1.13;;
71790;SDS011;59638;52.126;5.434;2023-07-13T03:56:10;9.20;;;1.38;;
71790;SDS011;59638;52.126;5.434;2023-07-13T03:58:38;6.00;;;0.63;;
71790;SDS011;59638;52.126;5.434;2023-07-13T04:01:06;2.70;;;0.55;;
71790;SDS011;59638;52.126;5.434;2023-07-13T04:03:35;8.27;;;0.80;;
71790;SDS011;59638;52.126;5.434;2023-07-13T04:06:03;7.03;;;1.08;;
71790;SDS011;59638;52.126;5.434;2023-07-13T04:08:32;9.88;;;1.33;;
71790;SDS011;59638;52.126;5.434;2023-07-13T04:11:01;10.40;;;1.67;;
71790;SDS011;59638;52.126;5.434;2023-07-13T04:13:28;4.50;;;0.70;;
71790;SDS011;59638;52.126;5.434;2023-07-13T04:15:55;4.35;;;1.17;;
71790;SDS011;59638;52.126;5.434;2023-07-13T04:18:22;9.18;;;0.90;;
71790;SDS011;59638;52.126;5.434;2023-07-13T04:20:49;5.30;;;1.45;;
71790;SDS011;59638;52.126;5.434;2023-07-13T04:23:17;8.40;;;1.63;;
71790;SDS011;59638;52.126;5.434;2023-07-13T04:25:47;6.25;;;1.08;;
71790;SDS011;59638;52.126;5.434;2023-07-13T04:28:15;5.35;;;0.73;;
71790;SDS011;59638;52.126;5.434;2023-07-13T04:30:43;10.35;;;1.77;;
71790;SDS011;59638;52.126;5.434;2023-07-13T04:33:10;5.28;;;1.42;;
71790;SDS011;59638;52.126;5.434;2023-07-13T04:35:37;9.83;;;1.93;;
71790;SDS011;59638;52.126;5.434;2023-07-13T04:38:04;7.13;;;1.40;;
71790;SDS011;59638;52.126;5.434;2023-07-13T04:40:30;7.97;;;0.85;;
71790;SDS011;59638;52.126;5.434;2023-07-13T04:42:57;5.75;;;1.17;;
71790;SDS011;59638;52.126;5.434;2023-07-13T04:45:23;10.32;;;1.45;;
71790;SDS011;59638;52.126;5.434;2023-07-13T04:47:50;6.77;;;1.20;;
71790;SDS011;59638;52.126;5.434;2023-07-13T04:50:17;10.10;;;1.60;;
71790;SDS011;59638;52.126;5.434;2023-07-13T04:52:47;7.00;;;0.80;;
71790;SDS011;59638;52.126;5.434;2023-07-13T04:55:14;7.95;;;1.42;;
71790;SDS011;59638;52.126;5.434;2023-07-13T04:57:40;6.05;;;0.70;;
71790;SDS011;59638;52.126;5.434;2023-07-13T05:00:07;10.70;;;1.67;;
71790;SDS011;59638;52.126;5.434;2023-07-13T05:02:34;7.30;;;1.73;;
71790;SDS011;59638;52.126;5.434;2023-07-13T05:05:01;4.45;;;0.95;;
71790;SDS011;59638;52.126;5.434;2023-07-13T05:07:30;10.25;;;1.55;;
71790;SDS011;59638;52.126;5.434;2023-07-13T05:09:59;8.52;;;1.60;;
71790;SDS011;59638;52.126;5.434;2023-07-13T05:12:26;5.93;;;1.10;;
71790;SDS011;59638;52.126;5.434;2023-07-13T05:14:53;8.00;;;1.40;;
71790;SDS011;59638;52.126;5.434;2023-07-13T05:17:19;4.85;;;1.33;;
71790;SDS011;59638;52.126;5.434;2023-07-13T05:19:46;7.18;;;1.70;;
71790;SDS011;59638;52.126;5.434;2023-07-13T05:22:13;10.13;;;1.25;;
71790;SDS011;59638;52.126;5.434;2023-07-13T05:24:40;7.83;;;1.37;;
71790;SDS011;59638;52.126;5.434;2023-07-13T05:27:06;11.15;;;1.88;;
71790;SDS011;59638;52.126;5.434;2023-07-13T05:29:33;9.90;;;2.13;;
71790;SDS011;59638;52.126;5.434;2023-07-13T05:31:59;13.23;;;1.70;;
71790;SDS011;59638;52.126;5.434;2023-07-13T05:34:26;8.23;;;1.92;;
71790;SDS011;59638;52.126;5.434;2023-07-13T05:36:53;10.13;;;1.77;;
71790;SDS011;59638;52.126;5.434;2023-07-13T05:39:20;11.95;;;2.00;;
71790;SDS011;59638;52.126;5.434;2023-07-13T05:41:46;7.35;;;1.95;;
71790;SDS011;59638;52.126;5.434;2023-07-13T05:44:13;15.10;;;2.90;;
71790;SDS011;59638;52.126;5.434;2023-07-13T05:46:39;9.40;;;2.60;;
71790;SDS011;59638;52.126;5.434;2023-07-13T05:49:06;5.43;;;2.20;;
71790;SDS011;59638;52.126;5.434;2023-07-13T05:51:32;13.18;;;2.72;;
71790;SDS011;59638;52.126;5.434;2023-07-13T05:53:59;14.68;;;3.03;;
71790;SDS011;59638;52.126;5.434;2023-07-13T05:56:26;14.10;;;3.53;;
71790;SDS011;59638;52.126;5.434;2023-07-13T05:58:52;15.40;;;3.47;;
71790;SDS011;59638;52.126;5.434;2023-07-13T06:01:19;9.57;;;3.57;;
71790;SDS011;59638;52.126;5.434;2023-07-13T06:03:46;8.32;;;3.78;;
71790;SDS011;59638;52.126;5.434;2023-07-13T06:06:13;14.45;;;3.80;;
71790;SDS011;59638;52.126;5.434;2023-07-13T06:08:41;12.55;;;4.35;;
71790;SDS011;59638;52.126;5.434;2023-07-13T06:11:10;9.70;;;4.35;;
71790;SDS011;59638;52.126;5.434;2023-07-13T06:13:40;17.30;;;3.93;;
71790;SDS011;59638;52.126;5.434;2023-07-13T06:16:07;19.42;;;4.60;;
71790;SDS011;59638;52.126;5.434;2023-07-13T06:18:35;12.55;;;3.28;;
71790;SDS011;59638;52.126;5.434;2023-07-13T06:21:09;10.40;;;4.20;;
71790;SDS011;59638;52.126;5.434;2023-07-13T06:23:38;9.48;;;3.40;;
71790;SDS011;59638;52.126;5.434;2023-07-13T06:26:05;9.30;;;4.00;;
71790;SDS011;59638;52.126;5.434;2023-07-13T06:28:32;15.27;;;3.55;;
71790;SDS011;59638;52.126;5.434;2023-07-13T06:31:00;17.35;;;3.95;;
71790;SDS011;59638;52.126;5.434;2023-07-13T06:33:27;16.48;;;3.53;;
71790;SDS011;59638;52.126;5.434;2023-07-13T06:35:54;14.50;;;4.50;;
71790;SDS011;59638;52.126;5.434;2023-07-13T06:38:21;8.47;;;3.63;;
71790;SDS011;59638;52.126;5.434;2023-07-13T06:40:47;12.25;;;4.40;;
71790;SDS011;59638;52.126;5.434;2023-07-13T06:43:14;11.70;;;4.18;;
71790;SDS011;59638;52.126;5.434;2023-07-13T06:45:43;15.27;;;4.43;;
71790;SDS011;59638;52.126;5.434;2023-07-13T06:48:15;16.55;;;4.25;;
71790;SDS011;59638;52.126;5.434;2023-07-13T06:50:42;13.87;;;4.53;;
71790;SDS011;59638;52.126;5.434;2023-07-13T06:53:09;10.68;;;4.65;;
71790;SDS011;59638;52.126;5.434;2023-07-13T06:55:37;13.82;;;4.13;;
71790;SDS011;59638;52.126;5.434;2023-07-13T06:58:03;11.02;;;3.80;;
71790;SDS011;59638;52.126;5.434;2023-07-13T07:00:30;7.70;;;3.92;;
71790;SDS011;59638;52.126;5.434;2023-07-13T07:02:57;14.13;;;4.27;;
71790;SDS011;59638;52.126;5.434;2023-07-13T07:05:24;13.25;;;5.43;;
71790;SDS011;59638;52.126;5.434;2023-07-13T07:07:51;12.38;;;4.72;;
71790;SDS011;59638;52.126;5.434;2023-07-13T07:10:18;13.43;;;5.03;;
71790;SDS011;59638;52.126;5.434;2023-07-13T07:12:45;13.18;;;5.38;;
71790;SDS011;59638;52.126;5.434;2023-07-13T07:15:12;13.73;;;4.30;;
71790;SDS011;59638;52.126;5.434;2023-07-13T07:17:39;14.20;;;5.05;;
71790;SDS011;59638;52.126;5.434;2023-07-13T07:20:06;11.02;;;4.85;;
71790;SDS011;59638;52.126;5.434;2023-07-13T07:22:33;14.93;;;4.97;;
71790;SDS011;59638;52.126;5.434;2023-07-13T07:25:00;12.73;;;4.47;;
71790;SDS011;59638;52.126;5.434;2023-07-13T07:27:26;12.07;;;4.20;;
71790;SDS011;59638;52.126;5.434;2023-07-13T07:29:56;16.48;;;5.07;;
71790;SDS011;59638;52.126;5.434;2023-07-13T07:32:28;14.13;;;4.43;;
71790;SDS011;59638;52.126;5.434;2023-07-13T07:35:16;12.25;;;5.70;;
71790;SDS011;59638;52.126;5.434;2023-07-13T07:37:42;18.58;;;5.80;;
71790;SDS011;59638;52.126;5.434;2023-07-13T07:40:12;15.87;;;4.87;;
71790;SDS011;59638;52.126;5.434;2023-07-13T07:42:41;20.48;;;5.60;;
71790;SDS011;59638;52.126;5.434;2023-07-13T07:45:08;13.25;;;4.60;;
71790;SDS011;59638;52.126;5.434;2023-07-13T07:47:37;12.35;;;4.88;;
71790;SDS011;59638;52.126;5.434;2023-07-13T07:50:05;17.63;;;5.65;;
71790;SDS011;59638;52.126;5.434;2023-07-13T07:52:32;14.57;;;5.90;;
71790;SDS011;59638;52.126;5.434;2023-07-13T07:54:58;15.48;;;5.60;;
71790;SDS011;59638;52.126;5.434;2023-07-13T07:57:28;16.58;;;5.65;;
71790;SDS011;59638;52.126;5.434;2023-07-13T07:59:57;15.38;;;5.07;;
71790;SDS011;59638;52.126;5.434;2023-07-13T08:02:27;26.15;;;5.88;;
71790;SDS011;59638;52.126;5.434;2023-07-13T08:04:56;13.80;;;4.50;;
71790;SDS011;59638;52.126;5.434;2023-07-13T08:07:25;13.98;;;4.95;;
71790;SDS011;59638;52.126;5.434;2023-07-13T08:09:53;11.82;;;5.03;;
71790;SDS011;59638;52.126;5.434;2023-07-13T08:12:19;9.23;;;4.18;;
71790;SDS011;59638;52.126;5.434;2023-07-13T08:15:07;16.40;;;4.75;;
71790;SDS011;59638;52.126;5.434;2023-07-13T08:17:37;8.73;;;3.90;;
71790;SDS011;59638;52.126;5.434;2023-07-13T08:20:04;11.48;;;4.55;;
71790;SDS011;59638;52.126;5.434;2023-07-13T08:22:31;7.88;;;4.18;;
71790;SDS011;59638;52.126;5.434;2023-07-13T08:24:59;5.22;;;3.75;;
71790;SDS011;59638;52.126;5.434;2023-07-13T08:27:26;11.43;;;3.92;;
71790;SDS011;59638;52.126;5.434;2023-07-13T08:29:54;8.03;;;3.07;;
71790;SDS011;59638;52.126;5.434;2023-07-13T08:32:21;10.55;;;4.18;;
71790;SDS011;59638;52.126;5.434;2023-07-13T08:34:49;10.93;;;2.92;;
71790;SDS011;59638;52.126;5.434;2023-07-13T08:37:16;7.68;;;3.22;;
71790;SDS011;59638;52.126;5.434;2023-07-13T08:39:44;9.82;;;3.60;;
71790;SDS011;59638;52.126;5.434;2023-07-13T08:42:12;10.10;;;2.30;;
71790;SDS011;59638;52.126;5.434;2023-07-13T08:47:32;4.32;;;1.23;;
71790;SDS011;59638;52.126;5.434;2023-07-13T08:50:04;3.13;;;1.02;;
71790;SDS011;59638;52.126;5.434;2023-07-13T08:52:38;5.38;;;1.48;;
71790;SDS011;59638;52.126;5.434;2023-07-13T08:55:16;3.40;;;0.93;;
71790;SDS011;59638;52.126;5.434;2023-07-13T08:57:48;3.67;;;0.60;;
71790;SDS011;59638;52.126;5.434;2023-07-13T09:00:23;1.58;;;0.40;;
71790;SDS011;59638;52.126;5.434;2023-07-13T09:02:57;3.50;;;0.73;;
71790;SDS011;59638;52.126;5.434;2023-07-13T09:05:37;2.58;;;0.65;;
71790;SDS011;59638;52.126;5.434;2023-07-13T09:10:49;4.78;;;0.50;;
71790;SDS011;59638;52.126;5.434;2023-07-13T09:14:22;1.80;;;0.40;;
71790;SDS011;59638;52.126;5.434;2023-07-13T09:16:22;2.83;;;1.00;;
71790;SDS011;59638;52.126;5.434;2023-07-13T09:18:50;3.38;;;0.70;;
71790;SDS011;59638;52.126;5.434;2023-07-13T09:21:39;7.93;;;0.90;;
71790;SDS011;59638;52.126;5.434;2023-07-13T09:26:44;5.85;;;0.70;;
71790;SDS011;59638;52.126;5.434;2023-07-13T09:29:13;4.65;;;0.88;;
71790;SDS011;59638;52.126;5.434;2023-07-13T09:31:49;3.25;;;0.65;;
71790;SDS011;59638;52.126;5.434;2023-07-13T09:34:20;3.20;;;0.87;;
71790;SDS011;59638;52.126;5.434;2023-07-13T09:36:47;5.80;;;0.80;;
71790;SDS011;59638;52.126;5.434;2023-07-13T09:39:47;3.83;;;0.93;;
71790;SDS011;59638;52.126;5.434;2023-07-13T09:44:38;1.80;;;0.70;;
71790;SDS011;59638;52.126;5.434;2023-07-13T09:47:18;3.20;;;0.30;;
71790;SDS011;59638;52.126;5.434;2023-07-13T09:49:53;3.38;;;0.52;;
71790;SDS011;59638;52.126;5.434;2023-07-13T09:52:24;2.00;;;0.60;;
71790;SDS011;59638;52.126;5.434;2023-07-13T09:54:54;3.05;;;0.40;;
71790;SDS011;59638;52.126;5.434;2023-07-13T09:57:27;4.20;;;1.23;;
71790;SDS011;59638;52.126;5.434;2023-07-13T10:00:18;7.33;;;1.33;;
71790;SDS011;59638;52.126;5.434;2023-07-13T10:02:49;5.45;;;0.70;;
71790;SDS011;59638;52.126;5.434;2023-07-13T10:05:25;4.82;;;0.50;;
71790;SDS011;59638;52.126;5.434;2023-07-13T10:07:52;4.45;;;0.80;;
71790;SDS011;59638;52.126;5.434;2023-07-13T10:10:22;2.95;;;0.55;;
71790;SDS011;59638;52.126;5.434;2023-07-13T10:12:49;1.97;;;0.50;;
71790;SDS011;59638;52.126;5.434;2023-07-13T10:15:21;3.88;;;1.45;;
71790;SDS011;59638;52.126;5.434;2023-07-13T10:17:51;4.00;;;1.38;;
71790;SDS011;59638;52.126;5.434;2023-07-13T10:20:19;2.63;;;0.70;;
71790;SDS011;59638;52.126;5.434;2023-07-13T10:23:02;3.60;;;0.82;;
71790;SDS011;59638;52.126;5.434;2023-07-13T10:25:37;3.43;;;0.63;;
71790;SDS011;59638;52.126;5.434;2023-07-13T10:28:25;2.20;;;0.95;;
71790;SDS011;59638;52.126;5.434;2023-07-13T10:30:55;1.80;;;0.57;;
71790;SDS011;59638;52.126;5.434;2023-07-13T10:33:24;4.45;;;0.60;;
71790;SDS011;59638;52.126;5.434;2023-07-13T10:35:55;4.07;;;0.77;;
71790;SDS011;59638;52.126;5.434;2023-07-13T10:38:30;5.00;;;0.80;;
71790;SDS011;59638;52.126;5.434;2023-07-13T10:43:34;3.83;;;1.08;;
71790;SDS011;59638;52.126;5.434;2023-07-13T10:46:05;3.20;;;0.65;;
71790;SDS011;59638;52.126;5.434;2023-07-13T10:48:34;4.50;;;1.40;;
71790;SDS011;59638;52.126;5.434;2023-07-13T10:51:03;4.17;;;1.10;;
71790;SDS011;59638;52.126;5.434;2023-07-13T10:53:34;2.53;;;1.25;;
71790;SDS011;59638;52.126;5.434;2023-07-13T10:56:06;5.47;;;0.80;;
71790;SDS011;59638;52.126;5.434;2023-07-13T10:59:00;3.33;;;1.17;;
71790;SDS011;59638;52.126;5.434;2023-07-13T11:01:57;2.22;;;0.52;;
71790;SDS011;59638;52.126;5.434;2023-07-13T11:04:42;5.17;;;0.87;;
71790;SDS011;59638;52.126;5.434;2023-07-13T11:07:17;1.98;;;0.40;;
71790;SDS011;59638;52.126;5.434;2023-07-13T11:09:49;1.80;;;0.50;;
71790;SDS011;59638;52.126;5.434;2023-07-13T11:22:46;1.17;;;0.55;;
71790;SDS011;59638;52.126;5.434;2023-07-13T11:25:26;3.90;;;0.70;;
71790;SDS011;59638;52.126;5.434;2023-07-13T11:30:43;2.87;;;0.73;;
71790;SDS011;59638;52.126;5.434;2023-07-13T11:38:34;2.03;;;0.55;;
71790;SDS011;59638;52.126;5.434;2023-07-13T11:41:03;2.08;;;0.73;;
71790;SDS011;59638;52.126;5.434;2023-07-13T11:43:33;5.60;;;0.63;;
71790;SDS011;59638;52.126;5.434;2023-07-13T11:48:51;4.47;;;1.00;;
71790;SDS011;59638;52.126;5.434;2023-07-13T11:51:23;2.67;;;0.57;;
71790;SDS011;59638;52.126;5.434;2023-07-13T11:54:01;2.80;;;0.57;;
71790;SDS011;59638;52.126;5.434;2023-07-13T11:56:31;2.30;;;0.67;;
71790;SDS011;59638;52.126;5.434;2023-07-13T11:59:02;3.88;;;1.10;;
71790;SDS011;59638;52.126;5.434;2023-07-13T12:01:32;2.78;;;0.70;;
71790;SDS011;59638;52.126;5.434;2023-07-13T12:04:01;3.15;;;0.82;;
71790;SDS011;59638;52.126;5.434;2023-07-13T12:06:31;2.95;;;0.75;;
71790;SDS011;59638;52.126;5.434;2023-07-13T12:09:08;4.80;;;1.13;;
71790;SDS011;59638;52.126;5.434;2023-07-13T12:11:47;2.25;;;1.02;;
71790;SDS011;59638;52.126;5.434;2023-07-13T12:14:17;3.45;;;1.30;;
71790;SDS011;59638;52.126;5.434;2023-07-13T12:16:48;3.92;;;1.02;;
71790;SDS011;59638;52.126;5.434;2023-07-13T12:21:52;3.57;;;1.37;;
71790;SDS011;59638;52.126;5.434;2023-07-13T12:24:21;8.18;;;1.13;;
71790;SDS011;59638;52.126;5.434;2023-07-13T12:26:53;4.72;;;1.42;;
71790;SDS011;59638;52.126;5.434;2023-07-13T12:29:27;4.43;;;0.70;;
71790;SDS011;59638;52.126;5.434;2023-07-13T12:31:53;5.30;;;1.00;;
71790;SDS011;59638;52.126;5.434;2023-07-13T12:34:23;2.57;;;0.60;;
71790;SDS011;59638;52.126;5.434;2023-07-13T12:45:00;2.70;;;1.05;;
71790;SDS011;59638;52.126;5.434;2023-07-13T12:47:32;4.80;;;1.60;;
71790;SDS011;59638;52.126;5.434;2023-07-13T12:50:15;1.83;;;0.85;;
71790;SDS011;59638;52.126;5.434;2023-07-13T12:52:44;2.63;;;0.73;;
71790;SDS011;59638;52.126;5.434;2023-07-13T12:55:16;4.93;;;1.00;;
71790;SDS011;59638;52.126;5.434;2023-07-13T13:00:21;4.67;;;1.10;;
71790;SDS011;59638;52.126;5.434;2023-07-13T13:02:51;4.53;;;0.80;;
71790;SDS011;59638;52.126;5.434;2023-07-13T13:05:33;4.75;;;1.10;;
71790;SDS011;59638;52.126;5.434;2023-07-13T13:08:00;2.42;;;0.73;;
71790;SDS011;59638;52.126;5.434;2023-07-13T13:10:27;3.17;;;0.70;;
71790;SDS011;59638;52.126;5.434;2023-07-13T13:12:53;6.80;;;1.30;;
71790;SDS011;59638;52.126;5.434;2023-07-13T13:15:20;2.50;;;1.00;;
71790;SDS011;59638;52.126;5.434;2023-07-13T13:17:48;6.07;;;0.90;;
71790;SDS011;59638;52.126;5.434;2023-07-13T13:20:16;4.40;;;0.90;;
71790;SDS011;59638;52.126;5.434;2023-07-13T13:22:47;5.15;;;1.00;;
71790;SDS011;59638;52.126;5.434;2023-07-13T13:25:14;2.63;;;0.93;;
71790;SDS011;59638;52.126;5.434;2023-07-13T13:27:41;4.25;;;0.65;;
71790;SDS011;59638;52.126;5.434;2023-07-13T13:30:10;1.75;;;0.57;;
71790;SDS011;59638;52.126;5.434;2023-07-13T13:32:42;4.78;;;1.30;;
71790;SDS011;59638;52.126;5.434;2023-07-13T13:35:14;3.58;;;0.70;;
71790;SDS011;59638;52.126;5.434;2023-07-13T13:37:45;2.43;;;0.57;;
71790;SDS011;59638;52.126;5.434;2023-07-13T13:40:14;2.60;;;0.73;;
71790;SDS011;59638;52.126;5.434;2023-07-13T13:42:42;2.35;;;0.77;;
71790;SDS011;59638;52.126;5.434;2023-07-13T13:45:10;2.63;;;1.05;;
71790;SDS011;59638;52.126;5.434;2023-07-13T13:47:38;2.72;;;0.98;;
71790;SDS011;59638;52.126;5.434;2023-07-13T13:50:11;4.50;;;0.90;;
71790;SDS011;59638;52.126;5.434;2023-07-13T13:52:46;3.65;;;0.60;;
71790;SDS011;59638;52.126;5.434;2023-07-13T13:55:14;4.10;;;1.02;;
71790;SDS011;59638;52.126;5.434;2023-07-13T13:57:42;4.38;;;0.70;;
71790;SDS011;59638;52.126;5.434;2023-07-13T14:00:09;2.03;;;0.70;;
71790;SDS011;59638;52.126;5.434;2023-07-13T14:02:41;5.27;;;1.07;;
71790;SDS011;59638;52.126;5.434;2023-07-13T14:05:23;2.90;;;0.77;;
71790;SDS011;59638;52.126;5.434;2023-07-13T14:07:54;4.75;;;0.60;;
71790;SDS011;59638;52.126;5.434;2023-07-13T14:10:21;2.67;;;0.85;;
71790;SDS011;59638;52.126;5.434;2023-07-13T14:12:51;3.65;;;0.93;;
71790;SDS011;59638;52.126;5.434;2023-07-13T14:15:21;4.73;;;0.90;;
71790;SDS011;59638;52.126;5.434;2023-07-13T14:17:49;3.63;;;1.08;;
71790;SDS011;59638;52.126;5.434;2023-07-13T14:20:17;3.63;;;0.75;;
71790;SDS011;59638;52.126;5.434;2023-07-13T14:22:45;5.35;;;0.70;;
71790;SDS011;59638;52.126;5.434;2023-07-13T14:25:12;3.25;;;0.90;;
71790;SDS011;59638;52.126;5.434;2023-07-13T14:27:41;2.10;;;0.80;;
71790;SDS011;59638;52.126;5.434;2023-07-13T14:30:18;1.80;;;0.60;;
71790;SDS011;59638;52.126;5.434;2023-07-13T14:32:47;3.40;;;0.70;;
71790;SDS011;59638;52.126;5.434;2023-07-13T14:35:16;3.97;;;0.80;;
71790;SDS011;59638;52.126;5.434;2023-07-13T14:37:45;1.70;;;0.73;;
71790;SDS011;59638;52.126;5.434;2023-07-13T14:40:17;1.87;;;0.80;;
71790;SDS011;59638;52.126;5.434;2023-07-13T14:42:47;3.35;;;0.65;;
71790;SDS011;59638;52.126;5.434;2023-07-13T14:45:14;3.67;;;0.90;;
71790;SDS011;59638;52.126;5.434;2023-07-13T14:47:42;2.03;;;0.50;;
71790;SDS011;59638;52.126;5.434;2023-07-13T14:52:42;2.43;;;0.77;;
71790;SDS011;59638;52.126;5.434;2023-07-13T14:55:13;1.63;;;0.50;;
71790;SDS011;59638;52.126;5.434;2023-07-13T14:57:41;4.40;;;0.73;;
71790;SDS011;59638;52.126;5.434;2023-07-13T15:02:43;1.88;;;0.60;;
71790;SDS011;59638;52.126;5.434;2023-07-13T15:07:40;3.33;;;0.90;;
71790;SDS011;59638;52.126;5.434;2023-07-13T15:10:17;1.58;;;0.50;;
71790;SDS011;59638;52.126;5.434;2023-07-13T15:12:45;3.35;;;0.57;;
71790;SDS011;59638;52.126;5.434;2023-07-13T15:15:12;1.73;;;0.70;;
71790;SDS011;59638;52.126;5.434;2023-07-13T15:17:40;2.83;;;1.00;;
71790;SDS011;59638;52.126;5.434;2023-07-13T15:20:31;3.30;;;0.40;;
71790;SDS011;59638;52.126;5.434;2023-07-13T15:23:01;4.15;;;0.52;;
71790;SDS011;59638;52.126;5.434;2023-07-13T15:25:29;1.98;;;0.60;;
71790;SDS011;59638;52.126;5.434;2023-07-13T15:27:59;2.90;;;0.40;;
71790;SDS011;59638;52.126;5.434;2023-07-13T15:30:32;4.17;;;0.53;;
71790;SDS011;59638;52.126;5.434;2023-07-13T15:35:45;2.70;;;0.47;;
71790;SDS011;59638;52.126;5.434;2023-07-13T15:38:15;2.67;;;0.70;;
71790;SDS011;59638;52.126;5.434;2023-07-13T15:40:42;2.92;;;0.47;;
71790;SDS011;59638;52.126;5.434;2023-07-13T15:43:10;3.93;;;0.60;;
71790;SDS011;59638;52.126;5.434;2023-07-13T15:45:40;3.55;;;0.63;;
71790;SDS011;59638;52.126;5.434;2023-07-13T15:50:47;3.35;;;0.40;;
71790;SDS011;59638;52.126;5.434;2023-07-13T15:53:21;2.20;;;0.43;;
71790;SDS011;59638;52.126;5.434;2023-07-13T15:55:55;1.43;;;0.73;;
71790;SDS011;59638;52.126;5.434;2023-07-13T15:58:21;1.60;;;0.30;;
71790;SDS011;59638;52.126;5.434;2023-07-13T16:00:48;2.13;;;0.40;;
71790;SDS011;59638;52.126;5.434;2023-07-13T16:03:20;4.53;;;0.35;;